sensor_id;sensor_type;location;lat;lon;timestamp;P1;durP1;ratioP1;P2;durP2;ratioP2
68319;SDS011;55168;51.120;17.024;2024-03-02T00:00:00;75.8;;;51.1;;
68319;SDS011;55168;51.120;17.024;2024-03-02T00:01:00;75.8;;;51.1;;
68319;SDS011;55168;51.120;17.024;2024-03-02T00:02:00;75.8;;;51.1;;
68319;SDS011;55168;51.120;17.024;2024-03-02T00:03:00;75.5;;;53.1;;
68319;SDS011;55168;51.120;17.024;2024-03-02T00:04:00;75.5;;;53.1;;
68319;SDS011;55168;51.120;17.024;2024-03-02T00:05:00;75.5;;;53.1;;
68319;SDS011;55168;51.120;17.024;2024-03-02T00:06:00;75.5;;;53.1;;
68319;SDS011;55168;51.120;17.024;2024-03-02T00:07:00;75.5;;;53.1;;
68319;SDS011;55168;51.120;17.024;2024-03-02T00:08:00;79.5;;;55.0;;
68319;SDS011;55168;51.120;17.024;2024-03-02T00:09:00;79.5;;;55.0;;
68319;SDS011;55168;51.120;17.024;2024-03-02T00:10:00;79.5;;;55.0;;
68319;SDS011;55168;51.120;17.024;2024-03-02T00:11:00;79.5;;;55.0;;
68319;SDS011;55168;51.120;17.024;2024-03-02T00:12:00;79.5;;;55.0;;
68319;SDS011;55168;51.120;17.024;2024-03-02T00:13:00;81.6;;;55.1;;
68319;SDS011;55168;51.120;17.024;2024-03-02T00:14:00;81.6;;;55.1;;
68319;SDS011;55168;51.120;17.024;2024-03-02T00:15:00;81.6;;;55.1;;
68319;SDS011;55168;51.120;17.024;2024-03-02T00:16:00;81.6;;;55.1;;
68319;SDS011;55168;51.120;17.024;2024-03-02T00:17:00;81.6;;;55.1;;
68319;SDS011;55168;51.120;17.024;2024-03-02T00:18:00;79.8;;;55.1;;
68319;SDS011;55168;51.120;17.024;2024-03-02T00:19:02;79.8;;;55.1;;
68319;SDS011;55168;51.120;17.024;2024-03-02T00:20:00;79.8;;;55.1;;
68319;SDS011;55168;51.120;17.024;2024-03-02T00:21:00;79.8;;;55.1;;
68319;SDS011;55168;51.120;17.024;2024-03-02T00:22:00;79.8;;;55.1;;
68319;SDS011;55168;51.120;17.024;2024-03-02T00:23:03;79.1;;;55.0;;
68319;SDS011;55168;51.120;17.024;2024-03-02T00:24:01;79.1;;;55.0;;
68319;SDS011;55168;51.120;17.024;2024-03-02T00:25:00;79.1;;;55.0;;
68319;SDS011;55168;51.120;17.024;2024-03-02T00:26:00;79.1;;;55.0;;
68319;SDS011;55168;51.120;17.024;2024-03-02T00:27:01;79.1;;;55.0;;
68319;SDS011;55168;51.120;17.024;2024-03-02T00:28:00;80.2;;;54.0;;
68319;SDS011;55168;51.120;17.024;2024-03-02T00:29:00;80.2;;;54.0;;
68319;SDS011;55168;51.120;17.024;2024-03-02T00:30:01;80.2;;;54.0;;
68319;SDS011;55168;51.120;17.024;2024-03-02T00:31:07;80.2;;;54.0;;
68319;SDS011;55168;51.120;17.024;2024-03-02T00:32:01;80.2;;;54.0;;
68319;SDS011;55168;51.120;17.024;2024-03-02T00:33:00;81.1;;;54.9;;
68319;SDS011;55168;51.120;17.024;2024-03-02T00:34:03;81.1;;;54.9;;
68319;SDS011;55168;51.120;17.024;2024-03-02T00:35:00;81.1;;;54.9;;
68319;SDS011;55168;51.120;17.024;2024-03-02T00:36:01;81.1;;;54.9;;
68319;SDS011;55168;51.120;17.024;2024-03-02T00:37:00;81.1;;;54.9;;
68319;SDS011;55168;51.120;17.024;2024-03-02T00:38:04;84.5;;;55.6;;
68319;SDS011;55168;51.120;17.024;2024-03-02T00:39:00;84.5;;;55.6;;
68319;SDS011;55168;51.120;17.024;2024-03-02T00:40:00;84.5;;;55.6;;
68319;SDS011;55168;51.120;17.024;2024-03-02T00:41:04;84.5;;;55.6;;
68319;SDS011;55168;51.120;17.024;2024-03-02T00:42:00;84.5;;;55.6;;
68319;SDS011;55168;51.120;17.024;2024-03-02T00:43:01;83.8;;;56.4;;
68319;SDS011;55168;51.120;17.024;2024-03-02T00:44:02;83.8;;;56.4;;
68319;SDS011;55168;51.120;17.024;2024-03-02T00:45:00;83.8;;;56.4;;
68319;SDS011;55168;51.120;17.024;2024-03-02T00:46:00;83.8;;;56.4;;
68319;SDS011;55168;51.120;17.024;2024-03-02T00:47:00;83.8;;;56.4;;
68319;SDS011;55168;51.120;17.024;2024-03-02T00:48:00;82.0;;;55.9;;
68319;SDS011;55168;51.120;17.024;2024-03-02T00:49:02;82.0;;;55.9;;
68319;SDS011;55168;51.120;17.024;2024-03-02T00:50:00;82.0;;;55.9;;
68319;SDS011;55168;51.120;17.024;2024-03-02T00:51:00;82.0;;;55.9;;
68319;SDS011;55168;51.120;17.024;2024-03-02T00:52:00;82.0;;;55.9;;
68319;SDS011;55168;51.120;17.024;2024-03-02T00:53:01;82.1;;;56.1;;
68319;SDS011;55168;51.120;17.024;2024-03-02T00:54:05;82.1;;;56.1;;
68319;SDS011;55168;51.120;17.024;2024-03-02T00:55:00;82.1;;;56.1;;
68319;SDS011;55168;51.120;17.024;2024-03-02T00:56:01;82.1;;;56.1;;
68319;SDS011;55168;51.120;17.024;2024-03-02T00:57:00;82.1;;;56.1;;
68319;SDS011;55168;51.120;17.024;2024-03-02T00:58:00;83.3;;;58.4;;
68319;SDS011;55168;51.120;17.024;2024-03-02T00:59:00;83.3;;;58.4;;
68319;SDS011;55168;51.120;17.024;2024-03-02T01:00:00;83.3;;;58.4;;
68319;SDS011;55168;51.120;17.024;2024-03-02T01:01:00;83.3;;;58.4;;
68319;SDS011;55168;51.120;17.024;2024-03-02T01:02:00;83.3;;;58.4;;
68319;SDS011;55168;51.120;17.024;2024-03-02T01:03:00;87.1;;;57.6;;
68319;SDS011;55168;51.120;17.024;2024-03-02T01:04:00;87.1;;;57.6;;
68319;SDS011;55168;51.120;17.024;2024-03-02T01:05:00;87.1;;;57.6;;
68319;SDS011;55168;51.120;17.024;2024-03-02T01:06:00;87.1;;;57.6;;
68319;SDS011;55168;51.120;17.024;2024-03-02T01:07:00;87.1;;;57.6;;
68319;SDS011;55168;51.120;17.024;2024-03-02T01:08:00;88.5;;;58.4;;
68319;SDS011;55168;51.120;17.024;2024-03-02T01:09:00;88.5;;;58.4;;
68319;SDS011;55168;51.120;17.024;2024-03-02T01:10:00;88.5;;;58.4;;
68319;SDS011;55168;51.120;17.024;2024-03-02T01:11:00;88.5;;;58.4;;
68319;SDS011;55168;51.120;17.024;2024-03-02T01:12:00;88.5;;;58.4;;
68319;SDS011;55168;51.120;17.024;2024-03-02T01:13:00;90.8;;;61.3;;
68319;SDS011;55168;51.120;17.024;2024-03-02T01:14:00;90.8;;;61.3;;
68319;SDS011;55168;51.120;17.024;2024-03-02T01:15:00;90.8;;;61.3;;
68319;SDS011;55168;51.120;17.024;2024-03-02T01:16:00;90.8;;;61.3;;
68319;SDS011;55168;51.120;17.024;2024-03-02T01:17:00;90.8;;;61.3;;
68319;SDS011;55168;51.120;17.024;2024-03-02T01:18:00;93.5;;;62.2;;
68319;SDS011;55168;51.120;17.024;2024-03-02T01:19:00;93.5;;;62.2;;
68319;SDS011;55168;51.120;17.024;2024-03-02T01:20:00;93.5;;;62.2;;
68319;SDS011;55168;51.120;17.024;2024-03-02T01:21:01;93.5;;;62.2;;
68319;SDS011;55168;51.120;17.024;2024-03-02T01:22:00;93.5;;;62.2;;
68319;SDS011;55168;51.120;17.024;2024-03-02T01:23:00;94.3;;;63.0;;
68319;SDS011;55168;51.120;17.024;2024-03-02T01:24:00;94.3;;;63.0;;
68319;SDS011;55168;51.120;17.024;2024-03-02T01:25:00;94.3;;;63.0;;
68319;SDS011;55168;51.120;17.024;2024-03-02T01:26:00;94.3;;;63.0;;
68319;SDS011;55168;51.120;17.024;2024-03-02T01:27:00;94.3;;;63.0;;
68319;SDS011;55168;51.120;17.024;2024-03-02T01:28:00;95.5;;;64.6;;
68319;SDS011;55168;51.120;17.024;2024-03-02T01:29:00;95.5;;;64.6;;
68319;SDS011;55168;51.120;17.024;2024-03-02T01:30:00;95.5;;;64.6;;
68319;SDS011;55168;51.120;17.024;2024-03-02T01:31:00;95.5;;;64.6;;
68319;SDS011;55168;51.120;17.024;2024-03-02T01:32:00;95.5;;;64.6;;
68319;SDS011;55168;51.120;17.024;2024-03-02T01:33:00;93.6;;;61.5;;
68319;SDS011;55168;51.120;17.024;2024-03-02T01:34:00;93.6;;;61.5;;
68319;SDS011;55168;51.120;17.024;2024-03-02T01:35:00;93.6;;;61.5;;
68319;SDS011;55168;51.120;17.024;2024-03-02T01:36:00;93.6;;;61.5;;
68319;SDS011;55168;51.120;17.024;2024-03-02T01:37:00;93.6;;;61.5;;
68319;SDS011;55168;51.120;17.024;2024-03-02T01:38:00;94.0;;;64.1;;
68319;SDS011;55168;51.120;17.024;2024-03-02T01:39:00;94.0;;;64.1;;
68319;SDS011;55168;51.120;17.024;2024-03-02T01:40:00;94.0;;;64.1;;
68319;SDS011;55168;51.120;17.024;2024-03-02T01:41:00;94.0;;;64.1;;
68319;SDS011;55168;51.120;17.024;2024-03-02T01:42:00;94.0;;;64.1;;
68319;SDS011;55168;51.120;17.024;2024-03-02T01:43:00;93.8;;;62.8;;
68319;SDS011;55168;51.120;17.024;2024-03-02T01:44:00;93.8;;;62.8;;
68319;SDS011;55168;51.120;17.024;2024-03-02T01:45:00;93.8;;;62.8;;
68319;SDS011;55168;51.120;17.024;2024-03-02T01:46:00;93.8;;;62.8;;
68319;SDS011;55168;51.120;17.024;2024-03-02T01:47:00;93.8;;;62.8;;
68319;SDS011;55168;51.120;17.024;2024-03-02T01:48:00;93.1;;;63.1;;
68319;SDS011;55168;51.120;17.024;2024-03-02T01:49:00;93.1;;;63.1;;
68319;SDS011;55168;51.120;17.024;2024-03-02T01:50:00;93.1;;;63.1;;
68319;SDS011;55168;51.120;17.024;2024-03-02T01:51:00;93.1;;;63.1;;
68319;SDS011;55168;51.120;17.024;2024-03-02T01:52:00;93.1;;;63.1;;
68319;SDS011;55168;51.120;17.024;2024-03-02T01:53:00;92.3;;;64.0;;
68319;SDS011;55168;51.120;17.024;2024-03-02T01:54:00;92.3;;;64.0;;
68319;SDS011;55168;51.120;17.024;2024-03-02T01:55:00;92.3;;;64.0;;
68319;SDS011;55168;51.120;17.024;2024-03-02T01:56:00;92.3;;;64.0;;
68319;SDS011;55168;51.120;17.024;2024-03-02T01:57:00;92.3;;;64.0;;
68319;SDS011;55168;51.120;17.024;2024-03-02T01:58:00;96.7;;;64.3;;
68319;SDS011;55168;51.120;17.024;2024-03-02T01:59:00;96.7;;;64.3;;
68319;SDS011;55168;51.120;17.024;2024-03-02T02:00:00;96.7;;;64.3;;
68319;SDS011;55168;51.120;17.024;2024-03-02T02:01:00;96.7;;;64.3;;
68319;SDS011;55168;51.120;17.024;2024-03-02T02:02:00;96.7;;;64.3;;
68319;SDS011;55168;51.120;17.024;2024-03-02T02:03:00;101.4;;;65.8;;
68319;SDS011;55168;51.120;17.024;2024-03-02T02:04:00;101.4;;;65.8;;
68319;SDS011;55168;51.120;17.024;2024-03-02T02:05:00;101.4;;;65.8;;
68319;SDS011;55168;51.120;17.024;2024-03-02T02:06:00;101.4;;;65.8;;
68319;SDS011;55168;51.120;17.024;2024-03-02T02:07:00;101.4;;;65.8;;
68319;SDS011;55168;51.120;17.024;2024-03-02T02:08:01;94.5;;;63.8;;
68319;SDS011;55168;51.120;17.024;2024-03-02T02:09:00;94.5;;;63.8;;
68319;SDS011;55168;51.120;17.024;2024-03-02T02:10:00;94.5;;;63.8;;
68319;SDS011;55168;51.120;17.024;2024-03-02T02:11:00;94.5;;;63.8;;
68319;SDS011;55168;51.120;17.024;2024-03-02T02:12:00;94.5;;;63.8;;
68319;SDS011;55168;51.120;17.024;2024-03-02T02:13:00;99.4;;;63.9;;
68319;SDS011;55168;51.120;17.024;2024-03-02T02:14:00;99.4;;;63.9;;
68319;SDS011;55168;51.120;17.024;2024-03-02T02:15:00;99.4;;;63.9;;
68319;SDS011;55168;51.120;17.024;2024-03-02T02:16:08;99.4;;;63.9;;
68319;SDS011;55168;51.120;17.024;2024-03-02T02:17:00;99.4;;;63.9;;
68319;SDS011;55168;51.120;17.024;2024-03-02T02:18:00;93.3;;;63.3;;
68319;SDS011;55168;51.120;17.024;2024-03-02T02:19:00;93.3;;;63.3;;
68319;SDS011;55168;51.120;17.024;2024-03-02T02:20:00;93.3;;;63.3;;
68319;SDS011;55168;51.120;17.024;2024-03-02T02:21:00;93.3;;;63.3;;
68319;SDS011;55168;51.120;17.024;2024-03-02T02:22:00;93.3;;;63.3;;
68319;SDS011;55168;51.120;17.024;2024-03-02T02:23:01;90.6;;;59.6;;
68319;SDS011;55168;51.120;17.024;2024-03-02T02:24:00;90.6;;;59.6;;
68319;SDS011;55168;51.120;17.024;2024-03-02T02:25:00;90.6;;;59.6;;
68319;SDS011;55168;51.120;17.024;2024-03-02T02:26:00;90.6;;;59.6;;
68319;SDS011;55168;51.120;17.024;2024-03-02T02:27:00;90.6;;;59.6;;
68319;SDS011;55168;51.120;17.024;2024-03-02T02:28:00;89.0;;;59.1;;
68319;SDS011;55168;51.120;17.024;2024-03-02T02:29:00;89.0;;;59.1;;
68319;SDS011;55168;51.120;17.024;2024-03-02T02:30:00;89.0;;;59.1;;
68319;SDS011;55168;51.120;17.024;2024-03-02T02:31:00;89.0;;;59.1;;
68319;SDS011;55168;51.120;17.024;2024-03-02T02:32:00;89.0;;;59.1;;
68319;SDS011;55168;51.120;17.024;2024-03-02T02:33:00;85.9;;;57.0;;
68319;SDS011;55168;51.120;17.024;2024-03-02T02:34:00;85.9;;;57.0;;
68319;SDS011;55168;51.120;17.024;2024-03-02T02:35:00;85.9;;;57.0;;
68319;SDS011;55168;51.120;17.024;2024-03-02T02:36:00;85.9;;;57.0;;
68319;SDS011;55168;51.120;17.024;2024-03-02T02:37:00;85.9;;;57.0;;
68319;SDS011;55168;51.120;17.024;2024-03-02T02:38:00;89.1;;;56.7;;
68319;SDS011;55168;51.120;17.024;2024-03-02T02:39:02;89.1;;;56.7;;
68319;SDS011;55168;51.120;17.024;2024-03-02T02:40:00;89.1;;;56.7;;
68319;SDS011;55168;51.120;17.024;2024-03-02T02:41:00;89.1;;;56.7;;
68319;SDS011;55168;51.120;17.024;2024-03-02T02:42:00;89.1;;;56.7;;
68319;SDS011;55168;51.120;17.024;2024-03-02T02:43:00;90.4;;;59.5;;
68319;SDS011;55168;51.120;17.024;2024-03-02T02:44:00;90.4;;;59.5;;
68319;SDS011;55168;51.120;17.024;2024-03-02T02:45:00;90.4;;;59.5;;
68319;SDS011;55168;51.120;17.024;2024-03-02T02:46:00;90.4;;;59.5;;
68319;SDS011;55168;51.120;17.024;2024-03-02T02:47:00;90.4;;;59.5;;
68319;SDS011;55168;51.120;17.024;2024-03-02T02:48:00;87.4;;;58.3;;
68319;SDS011;55168;51.120;17.024;2024-03-02T02:49:00;87.4;;;58.3;;
68319;SDS011;55168;51.120;17.024;2024-03-02T02:50:00;87.4;;;58.3;;
68319;SDS011;55168;51.120;17.024;2024-03-02T02:51:00;87.4;;;58.3;;
68319;SDS011;55168;51.120;17.024;2024-03-02T02:52:00;87.4;;;58.3;;
68319;SDS011;55168;51.120;17.024;2024-03-02T02:53:00;91.5;;;61.3;;
68319;SDS011;55168;51.120;17.024;2024-03-02T02:54:00;91.5;;;61.3;;
68319;SDS011;55168;51.120;17.024;2024-03-02T02:55:00;91.5;;;61.3;;
68319;SDS011;55168;51.120;17.024;2024-03-02T02:56:00;91.5;;;61.3;;
68319;SDS011;55168;51.120;17.024;2024-03-02T02:57:00;91.5;;;61.3;;
68319;SDS011;55168;51.120;17.024;2024-03-02T02:58:00;98.6;;;64.3;;
68319;SDS011;55168;51.120;17.024;2024-03-02T02:59:00;98.6;;;64.3;;
68319;SDS011;55168;51.120;17.024;2024-03-02T03:00:00;98.6;;;64.3;;
68319;SDS011;55168;51.120;17.024;2024-03-02T03:01:00;98.6;;;64.3;;
68319;SDS011;55168;51.120;17.024;2024-03-02T03:02:00;98.6;;;64.3;;
68319;SDS011;55168;51.120;17.024;2024-03-02T03:03:00;99.6;;;63.7;;
68319;SDS011;55168;51.120;17.024;2024-03-02T03:04:00;99.6;;;63.7;;
68319;SDS011;55168;51.120;17.024;2024-03-02T03:05:00;99.6;;;63.7;;
68319;SDS011;55168;51.120;17.024;2024-03-02T03:06:00;99.6;;;63.7;;
68319;SDS011;55168;51.120;17.024;2024-03-02T03:07:00;99.6;;;63.7;;
68319;SDS011;55168;51.120;17.024;2024-03-02T03:08:00;98.0;;;63.3;;
68319;SDS011;55168;51.120;17.024;2024-03-02T03:09:00;98.0;;;63.3;;
68319;SDS011;55168;51.120;17.024;2024-03-02T03:10:00;98.0;;;63.3;;
68319;SDS011;55168;51.120;17.024;2024-03-02T03:11:00;98.0;;;63.3;;
68319;SDS011;55168;51.120;17.024;2024-03-02T03:12:00;98.0;;;63.3;;
68319;SDS011;55168;51.120;17.024;2024-03-02T03:13:00;94.5;;;63.5;;
68319;SDS011;55168;51.120;17.024;2024-03-02T03:14:00;94.5;;;63.5;;
68319;SDS011;55168;51.120;17.024;2024-03-02T03:15:00;94.5;;;63.5;;
68319;SDS011;55168;51.120;17.024;2024-03-02T03:16:00;94.5;;;63.5;;
68319;SDS011;55168;51.120;17.024;2024-03-02T03:17:00;94.5;;;63.5;;
68319;SDS011;55168;51.120;17.024;2024-03-02T03:18:00;95.3;;;62.5;;
68319;SDS011;55168;51.120;17.024;2024-03-02T03:19:00;95.3;;;62.5;;
68319;SDS011;55168;51.120;17.024;2024-03-02T03:20:00;95.3;;;62.5;;
68319;SDS011;55168;51.120;17.024;2024-03-02T03:21:00;95.3;;;62.5;;
68319;SDS011;55168;51.120;17.024;2024-03-02T03:22:00;95.3;;;62.5;;
68319;SDS011;55168;51.120;17.024;2024-03-02T03:23:00;92.9;;;60.6;;
68319;SDS011;55168;51.120;17.024;2024-03-02T03:24:00;92.9;;;60.6;;
68319;SDS011;55168;51.120;17.024;2024-03-02T03:25:00;92.9;;;60.6;;
68319;SDS011;55168;51.120;17.024;2024-03-02T03:26:00;92.9;;;60.6;;
68319;SDS011;55168;51.120;17.024;2024-03-02T03:27:00;92.9;;;60.6;;
68319;SDS011;55168;51.120;17.024;2024-03-02T03:28:00;91.0;;;60.3;;
68319;SDS011;55168;51.120;17.024;2024-03-02T03:29:00;91.0;;;60.3;;
68319;SDS011;55168;51.120;17.024;2024-03-02T03:30:00;91.0;;;60.3;;
68319;SDS011;55168;51.120;17.024;2024-03-02T03:31:00;91.0;;;60.3;;
68319;SDS011;55168;51.120;17.024;2024-03-02T03:32:00;91.0;;;60.3;;
68319;SDS011;55168;51.120;17.024;2024-03-02T03:33:00;95.0;;;59.5;;
68319;SDS011;55168;51.120;17.024;2024-03-02T03:34:00;95.0;;;59.5;;
68319;SDS011;55168;51.120;17.024;2024-03-02T03:35:00;95.0;;;59.5;;
68319;SDS011;55168;51.120;17.024;2024-03-02T03:36:00;95.0;;;59.5;;
68319;SDS011;55168;51.120;17.024;2024-03-02T03:37:00;95.0;;;59.5;;
68319;SDS011;55168;51.120;17.024;2024-03-02T03:38:00;92.6;;;58.2;;
68319;SDS011;55168;51.120;17.024;2024-03-02T03:39:00;92.6;;;58.2;;
68319;SDS011;55168;51.120;17.024;2024-03-02T03:40:01;92.6;;;58.2;;
68319;SDS011;55168;51.120;17.024;2024-03-02T03:41:00;92.6;;;58.2;;
68319;SDS011;55168;51.120;17.024;2024-03-02T03:42:00;92.6;;;58.2;;
68319;SDS011;55168;51.120;17.024;2024-03-02T03:43:00;87.7;;;58.2;;
68319;SDS011;55168;51.120;17.024;2024-03-02T03:44:00;87.7;;;58.2;;
68319;SDS011;55168;51.120;17.024;2024-03-02T03:45:00;87.7;;;58.2;;
68319;SDS011;55168;51.120;17.024;2024-03-02T03:46:00;87.7;;;58.2;;
68319;SDS011;55168;51.120;17.024;2024-03-02T03:47:00;86.6;;;55.2;;
68319;SDS011;55168;51.120;17.024;2024-03-02T03:48:00;86.6;;;55.2;;
68319;SDS011;55168;51.120;17.024;2024-03-02T03:49:00;86.6;;;55.2;;
68319;SDS011;55168;51.120;17.024;2024-03-02T03:50:00;86.6;;;55.2;;
68319;SDS011;55168;51.120;17.024;2024-03-02T03:51:00;86.6;;;55.2;;
68319;SDS011;55168;51.120;17.024;2024-03-02T03:52:00;85.2;;;57.3;;
68319;SDS011;55168;51.120;17.024;2024-03-02T03:53:00;85.2;;;57.3;;
68319;SDS011;55168;51.120;17.024;2024-03-02T03:54:00;85.2;;;57.3;;
68319;SDS011;55168;51.120;17.024;2024-03-02T03:55:00;85.2;;;57.3;;
68319;SDS011;55168;51.120;17.024;2024-03-02T03:56:00;85.2;;;57.3;;
68319;SDS011;55168;51.120;17.024;2024-03-02T03:57:00;90.7;;;58.1;;
68319;SDS011;55168;51.120;17.024;2024-03-02T03:58:00;90.7;;;58.1;;
68319;SDS011;55168;51.120;17.024;2024-03-02T03:59:00;90.7;;;58.1;;
68319;SDS011;55168;51.120;17.024;2024-03-02T04:00:00;90.7;;;58.1;;
68319;SDS011;55168;51.120;17.024;2024-03-02T04:01:00;90.7;;;58.1;;
68319;SDS011;55168;51.120;17.024;2024-03-02T04:02:00;85.3;;;57.6;;
68319;SDS011;55168;51.120;17.024;2024-03-02T04:03:00;85.3;;;57.6;;
68319;SDS011;55168;51.120;17.024;2024-03-02T04:04:00;85.3;;;57.6;;
68319;SDS011;55168;51.120;17.024;2024-03-02T04:05:00;85.3;;;57.6;;
68319;SDS011;55168;51.120;17.024;2024-03-02T04:06:00;85.3;;;57.6;;
68319;SDS011;55168;51.120;17.024;2024-03-02T04:07:00;90.1;;;56.6;;
68319;SDS011;55168;51.120;17.024;2024-03-02T04:08:00;90.1;;;56.6;;
68319;SDS011;55168;51.120;17.024;2024-03-02T04:09:00;90.1;;;56.6;;
68319;SDS011;55168;51.120;17.024;2024-03-02T04:10:00;90.1;;;56.6;;
68319;SDS011;55168;51.120;17.024;2024-03-02T04:11:00;90.1;;;56.6;;
68319;SDS011;55168;51.120;17.024;2024-03-02T04:12:00;92.8;;;58.4;;
68319;SDS011;55168;51.120;17.024;2024-03-02T04:13:00;92.8;;;58.4;;
68319;SDS011;55168;51.120;17.024;2024-03-02T04:14:00;92.8;;;58.4;;
68319;SDS011;55168;51.120;17.024;2024-03-02T04:15:00;92.8;;;58.4;;
68319;SDS011;55168;51.120;17.024;2024-03-02T04:16:00;92.8;;;58.4;;
68319;SDS011;55168;51.120;17.024;2024-03-02T04:17:00;88.5;;;58.3;;
68319;SDS011;55168;51.120;17.024;2024-03-02T04:18:00;88.5;;;58.3;;
68319;SDS011;55168;51.120;17.024;2024-03-02T04:19:00;88.5;;;58.3;;
68319;SDS011;55168;51.120;17.024;2024-03-02T04:20:00;88.5;;;58.3;;
68319;SDS011;55168;51.120;17.024;2024-03-02T04:21:00;88.5;;;58.3;;
68319;SDS011;55168;51.120;17.024;2024-03-02T04:22:00;87.3;;;57.7;;
68319;SDS011;55168;51.120;17.024;2024-03-02T04:23:00;87.3;;;57.7;;
68319;SDS011;55168;51.120;17.024;2024-03-02T04:24:00;87.3;;;57.7;;
68319;SDS011;55168;51.120;17.024;2024-03-02T04:25:00;87.3;;;57.7;;
68319;SDS011;55168;51.120;17.024;2024-03-02T04:26:00;87.3;;;57.7;;
68319;SDS011;55168;51.120;17.024;2024-03-02T04:27:00;94.2;;;61.4;;
68319;SDS011;55168;51.120;17.024;2024-03-02T04:28:00;94.2;;;61.4;;
68319;SDS011;55168;51.120;17.024;2024-03-02T04:29:00;94.2;;;61.4;;
68319;SDS011;55168;51.120;17.024;2024-03-02T04:30:00;94.2;;;61.4;;
68319;SDS011;55168;51.120;17.024;2024-03-02T04:31:00;94.2;;;61.4;;
68319;SDS011;55168;51.120;17.024;2024-03-02T04:32:00;82.1;;;55.8;;
68319;SDS011;55168;51.120;17.024;2024-03-02T04:33:00;82.1;;;55.8;;
68319;SDS011;55168;51.120;17.024;2024-03-02T04:34:00;82.1;;;55.8;;
68319;SDS011;55168;51.120;17.024;2024-03-02T04:35:00;82.1;;;55.8;;
68319;SDS011;55168;51.120;17.024;2024-03-02T04:36:00;82.1;;;55.8;;
68319;SDS011;55168;51.120;17.024;2024-03-02T04:37:00;84.1;;;55.7;;
68319;SDS011;55168;51.120;17.024;2024-03-02T04:38:00;84.1;;;55.7;;
68319;SDS011;55168;51.120;17.024;2024-03-02T04:39:00;84.1;;;55.7;;
68319;SDS011;55168;51.120;17.024;2024-03-02T04:40:00;84.1;;;55.7;;
68319;SDS011;55168;51.120;17.024;2024-03-02T04:41:00;84.1;;;55.7;;
68319;SDS011;55168;51.120;17.024;2024-03-02T04:42:00;83.7;;;55.5;;
68319;SDS011;55168;51.120;17.024;2024-03-02T04:43:00;83.7;;;55.5;;
68319;SDS011;55168;51.120;17.024;2024-03-02T04:44:00;83.7;;;55.5;;
68319;SDS011;55168;51.120;17.024;2024-03-02T04:45:00;83.7;;;55.5;;
68319;SDS011;55168;51.120;17.024;2024-03-02T04:46:00;83.7;;;55.5;;
68319;SDS011;55168;51.120;17.024;2024-03-02T04:47:00;81.7;;;56.2;;
68319;SDS011;55168;51.120;17.024;2024-03-02T04:48:00;81.7;;;56.2;;
68319;SDS011;55168;51.120;17.024;2024-03-02T04:49:00;81.7;;;56.2;;
68319;SDS011;55168;51.120;17.024;2024-03-02T04:50:00;81.7;;;56.2;;
68319;SDS011;55168;51.120;17.024;2024-03-02T04:51:00;81.7;;;56.2;;
68319;SDS011;55168;51.120;17.024;2024-03-02T04:52:00;86.5;;;58.9;;
68319;SDS011;55168;51.120;17.024;2024-03-02T04:53:00;86.5;;;58.9;;
68319;SDS011;55168;51.120;17.024;2024-03-02T04:54:00;86.5;;;58.9;;
68319;SDS011;55168;51.120;17.024;2024-03-02T04:55:00;86.5;;;58.9;;
68319;SDS011;55168;51.120;17.024;2024-03-02T04:56:00;86.5;;;58.9;;
68319;SDS011;55168;51.120;17.024;2024-03-02T04:57:00;88.5;;;60.5;;
68319;SDS011;55168;51.120;17.024;2024-03-02T04:58:00;88.5;;;60.5;;
68319;SDS011;55168;51.120;17.024;2024-03-02T04:59:00;88.5;;;60.5;;
68319;SDS011;55168;51.120;17.024;2024-03-02T05:00:00;88.5;;;60.5;;
68319;SDS011;55168;51.120;17.024;2024-03-02T05:01:00;88.5;;;60.5;;
68319;SDS011;55168;51.120;17.024;2024-03-02T05:02:00;91.6;;;61.5;;
68319;SDS011;55168;51.120;17.024;2024-03-02T05:03:00;91.6;;;61.5;;
68319;SDS011;55168;51.120;17.024;2024-03-02T05:04:00;91.6;;;61.5;;
68319;SDS011;55168;51.120;17.024;2024-03-02T05:05:00;91.6;;;61.5;;
68319;SDS011;55168;51.120;17.024;2024-03-02T05:06:00;91.6;;;61.5;;
68319;SDS011;55168;51.120;17.024;2024-03-02T05:07:00;93.6;;;61.6;;
68319;SDS011;55168;51.120;17.024;2024-03-02T05:08:00;93.6;;;61.6;;
68319;SDS011;55168;51.120;17.024;2024-03-02T05:09:00;93.6;;;61.6;;
68319;SDS011;55168;51.120;17.024;2024-03-02T05:10:00;93.6;;;61.6;;
68319;SDS011;55168;51.120;17.024;2024-03-02T05:11:00;93.6;;;61.6;;
68319;SDS011;55168;51.120;17.024;2024-03-02T05:12:00;90.2;;;59.7;;
68319;SDS011;55168;51.120;17.024;2024-03-02T05:13:00;90.2;;;59.7;;
68319;SDS011;55168;51.120;17.024;2024-03-02T05:14:00;90.2;;;59.7;;
68319;SDS011;55168;51.120;17.024;2024-03-02T05:15:00;90.2;;;59.7;;
68319;SDS011;55168;51.120;17.024;2024-03-02T05:16:00;90.2;;;59.7;;
68319;SDS011;55168;51.120;17.024;2024-03-02T05:17:00;82.0;;;56.7;;
68319;SDS011;55168;51.120;17.024;2024-03-02T05:18:00;82.0;;;56.7;;
68319;SDS011;55168;51.120;17.024;2024-03-02T05:19:00;82.0;;;56.7;;
68319;SDS011;55168;51.120;17.024;2024-03-02T05:20:00;82.0;;;56.7;;
68319;SDS011;55168;51.120;17.024;2024-03-02T05:21:00;82.0;;;56.7;;
68319;SDS011;55168;51.120;17.024;2024-03-02T05:22:00;80.7;;;54.3;;
68319;SDS011;55168;51.120;17.024;2024-03-02T05:23:00;80.7;;;54.3;;
68319;SDS011;55168;51.120;17.024;2024-03-02T05:24:00;80.7;;;54.3;;
68319;SDS011;55168;51.120;17.024;2024-03-02T05:25:00;80.7;;;54.3;;
68319;SDS011;55168;51.120;17.024;2024-03-02T05:26:00;80.7;;;54.3;;
68319;SDS011;55168;51.120;17.024;2024-03-02T05:27:00;80.9;;;52.3;;
68319;SDS011;55168;51.120;17.024;2024-03-02T05:28:00;80.9;;;52.3;;
68319;SDS011;55168;51.120;17.024;2024-03-02T05:29:00;80.9;;;52.3;;
68319;SDS011;55168;51.120;17.024;2024-03-02T05:30:00;80.9;;;52.3;;
68319;SDS011;55168;51.120;17.024;2024-03-02T05:31:00;80.9;;;52.3;;
68319;SDS011;55168;51.120;17.024;2024-03-02T05:32:00;77.2;;;50.8;;
68319;SDS011;55168;51.120;17.024;2024-03-02T05:33:00;77.2;;;50.8;;
68319;SDS011;55168;51.120;17.024;2024-03-02T05:34:00;77.2;;;50.8;;
68319;SDS011;55168;51.120;17.024;2024-03-02T05:35:00;77.2;;;50.8;;
68319;SDS011;55168;51.120;17.024;2024-03-02T05:36:00;77.2;;;50.8;;
68319;SDS011;55168;51.120;17.024;2024-03-02T05:37:00;78.8;;;51.1;;
68319;SDS011;55168;51.120;17.024;2024-03-02T05:38:00;78.8;;;51.1;;
68319;SDS011;55168;51.120;17.024;2024-03-02T05:39:00;78.8;;;51.1;;
68319;SDS011;55168;51.120;17.024;2024-03-02T05:40:02;78.8;;;51.1;;
68319;SDS011;55168;51.120;17.024;2024-03-02T05:41:00;78.8;;;51.1;;
68319;SDS011;55168;51.120;17.024;2024-03-02T05:42:00;78.1;;;51.1;;
68319;SDS011;55168;51.120;17.024;2024-03-02T05:43:00;78.1;;;51.1;;
68319;SDS011;55168;51.120;17.024;2024-03-02T05:44:00;78.1;;;51.1;;
68319;SDS011;55168;51.120;17.024;2024-03-02T05:45:00;78.1;;;51.1;;
68319;SDS011;55168;51.120;17.024;2024-03-02T05:46:00;78.1;;;51.1;;
68319;SDS011;55168;51.120;17.024;2024-03-02T05:47:00;76.1;;;51.8;;
68319;SDS011;55168;51.120;17.024;2024-03-02T05:48:00;76.1;;;51.8;;
68319;SDS011;55168;51.120;17.024;2024-03-02T05:49:00;76.1;;;51.8;;
68319;SDS011;55168;51.120;17.024;2024-03-02T05:50:00;76.1;;;51.8;;
68319;SDS011;55168;51.120;17.024;2024-03-02T05:51:00;76.1;;;51.8;;
68319;SDS011;55168;51.120;17.024;2024-03-02T05:52:00;76.1;;;51.1;;
68319;SDS011;55168;51.120;17.024;2024-03-02T05:53:00;76.1;;;51.1;;
68319;SDS011;55168;51.120;17.024;2024-03-02T05:54:00;76.1;;;51.1;;
68319;SDS011;55168;51.120;17.024;2024-03-02T05:55:00;76.1;;;51.1;;